createdAt,value
2022-08-17T00:02:09.828Z,28.50
2022-08-17T00:04:51.226Z,28.52
2022-08-17T00:07:17.872Z,28.53
2022-08-17T00:09:44.489Z,28.52
2022-08-17T00:12:41.652Z,28.52
2022-08-17T00:14:57.893Z,28.47
2022-08-17T00:17:24.523Z,28.50
2022-08-17T00:19:51.110Z,28.50
2022-08-17T00:22:31.087Z,28.51
2022-08-17T00:25:02.961Z,28.47
2022-08-17T00:27:29.572Z,28.50
2022-08-17T00:29:56.294Z,28.46
2022-08-17T00:33:14.005Z,28.42
2022-08-17T00:35:13.198Z,28.39
2022-08-17T00:37:40.376Z,28.37
2022-08-17T00:40:09.969Z,28.42
2022-08-17T00:42:37.490Z,28.32
2022-08-17T00:45:06.591Z,28.27
2022-08-17T00:47:33.688Z,28.22
2022-08-17T00:50:00.569Z,28.24
2022-08-17T00:52:35.470Z,28.32
2022-08-17T00:55:03.201Z,28.28
2022-08-17T00:57:35.042Z,28.19
2022-08-17T01:00:15.974Z,28.18
2022-08-17T01:02:45.337Z,28.15
2022-08-17T01:05:19.008Z,28.20
2022-08-17T01:07:47.999Z,28.14
2022-08-17T01:10:58.269Z,28.11
2022-08-17T01:13:04.067Z,28.14
2022-08-17T01:15:35.036Z,28.11
2022-08-17T01:18:02.468Z,28.17
2022-08-17T01:20:29.586Z,28.25
2022-08-17T01:22:56.212Z,28.31
2022-08-17T01:25:23.158Z,28.28
2022-08-17T01:27:50.056Z,28.27
2022-08-17T01:30:56.850Z,28.24
2022-08-17T01:33:04.693Z,28.18
2022-08-17T01:35:31.885Z,28.13
2022-08-17T01:37:58.539Z,28.08
2022-08-17T01:40:43.404Z,28.15
2022-08-17T01:43:37.201Z,28.13
2022-08-17T01:46:04.341Z,28.14
2022-08-17T01:48:33.483Z,28.17
2022-08-17T01:51:00.730Z,28.18
2022-08-17T01:53:39.845Z,28.26
2022-08-17T01:56:10.771Z,28.25
2022-08-17T01:58:38.460Z,28.22
2022-08-17T02:01:06.659Z,28.20
2022-08-17T02:03:35.637Z,28.25
2022-08-17T02:06:03.360Z,28.17
2022-08-17T02:08:38.665Z,28.18
2022-08-17T02:11:13.779Z,28.22
2022-08-17T02:13:40.520Z,28.19
2022-08-17T02:16:07.503Z,28.19
2022-08-17T02:18:34.186Z,28.18
2022-08-17T02:21:00.946Z,28.18
2022-08-17T02:23:30.691Z,28.17
2022-08-17T02:26:00.204Z,28.19
2022-08-17T02:28:28.528Z,28.18
2022-08-17T02:31:00.992Z,28.19
2022-08-17T02:33:41.776Z,28.08
2022-08-17T02:36:11.942Z,28.20
2022-08-17T02:38:39.854Z,28.20
2022-08-17T02:41:06.765Z,28.05
2022-08-17T02:43:33.444Z,28.01
2022-08-17T02:46:00.191Z,28.06
2022-08-17T02:48:30.700Z,27.97
2022-08-17T02:51:00.136Z,27.93
2022-08-17T02:53:27.477Z,27.83
2022-08-17T02:56:00.312Z,27.83
2022-08-17T02:58:34.635Z,27.80
2022-08-17T03:01:07.220Z,27.76
2022-08-17T03:03:35.163Z,27.74
2022-08-17T03:06:02.193Z,27.69
2022-08-17T03:08:29.001Z,27.68
2022-08-17T03:10:56.056Z,27.66
2022-08-17T03:13:22.855Z,27.60
2022-08-17T03:15:49.499Z,27.64
2022-08-17T03:18:25.335Z,27.55
2022-08-17T03:20:54.867Z,27.55
2022-08-17T03:23:23.679Z,27.52
2022-08-17T03:25:52.974Z,27.56
2022-08-17T03:28:20.476Z,27.58
2022-08-17T03:30:47.260Z,27.48
2022-08-17T03:33:14.196Z,27.48
2022-08-17T03:35:41.792Z,27.49
2022-08-17T03:38:12.765Z,27.43
2022-08-17T03:40:57.565Z,27.42
2022-08-17T03:43:30.489Z,27.49
2022-08-17T03:46:28.980Z,27.48
2022-08-17T03:49:25.216Z,27.39
2022-08-17T03:52:11.024Z,27.37
2022-08-17T03:54:56.243Z,27.43
2022-08-17T03:57:22.871Z,27.38
2022-08-17T03:59:49.618Z,27.41
2022-08-17T04:02:21.381Z,27.37
2022-08-17T04:04:51.336Z,27.30
2022-08-17T04:07:19.920Z,27.33
2022-08-17T04:09:46.508Z,27.37
2022-08-17T04:12:16.195Z,27.43
2022-08-17T04:14:53.070Z,27.57
2022-08-17T04:17:26.293Z,27.57
2022-08-17T04:19:53.559Z,27.58
2022-08-17T04:22:32.401Z,27.52
2022-08-17T04:25:18.073Z,27.57
2022-08-17T04:27:44.717Z,27.54
2022-08-17T04:30:12.793Z,27.58
2022-08-17T04:33:10.963Z,27.57
2022-08-17T04:35:44.198Z,27.59
2022-08-17T04:38:14.016Z,27.52
2022-08-17T04:40:59.561Z,27.56
2022-08-17T04:43:31.048Z,27.59
2022-08-17T04:46:00.625Z,27.50
2022-08-17T04:48:36.499Z,27.54
2022-08-17T04:51:07.214Z,27.52
2022-08-17T04:53:33.833Z,27.48
2022-08-17T04:56:00.462Z,27.53
2022-08-17T04:58:27.108Z,27.57
2022-08-17T05:00:53.830Z,27.54
2022-08-17T05:03:20.520Z,27.53
2022-08-17T05:05:50.118Z,27.57
2022-08-17T05:08:18.998Z,27.49
2022-08-17T05:10:46.941Z,27.57
2022-08-17T05:13:20.374Z,27.56
2022-08-17T05:15:49.303Z,27.53
2022-08-17T05:18:17.470Z,27.48
2022-08-17T05:20:44.135Z,27.53
2022-08-17T05:23:13.587Z,27.55
2022-08-17T05:25:47.694Z,27.55
2022-08-17T05:28:16.238Z,27.51
2022-08-17T05:30:44.641Z,27.54
2022-08-17T05:33:17.434Z,27.55
2022-08-17T05:35:47.651Z,27.54
2022-08-17T05:38:15.590Z,27.59
2022-08-17T05:40:43.706Z,27.56
2022-08-17T05:43:16.513Z,27.58
2022-08-17T05:45:59.994Z,27.67
2022-08-17T05:48:35.458Z,27.66
2022-08-17T05:51:20.546Z,27.67
2022-08-17T05:54:17.022Z,27.72
2022-08-17T05:56:43.614Z,27.67
2022-08-17T05:59:29.485Z,27.62
2022-08-17T06:01:56.024Z,27.72
2022-08-17T06:04:31.497Z,27.75
2022-08-17T06:07:07.212Z,27.65
2022-08-17T06:09:44.640Z,27.79
2022-08-17T06:12:30.117Z,27.96
2022-08-17T06:15:19.480Z,28.18
2022-08-17T06:17:46.674Z,28.22
2022-08-17T06:20:15.937Z,28.39
2022-08-17T06:22:49.711Z,28.52
2022-08-17T06:25:22.622Z,28.54
2022-08-17T06:27:54.236Z,28.56
2022-08-17T06:30:27.195Z,28.57
2022-08-17T06:33:00.374Z,28.44
2022-08-17T06:36:03.085Z,28.52
2022-08-17T06:38:53.256Z,28.59
2022-08-17T06:41:42.938Z,28.62
2022-08-17T06:44:43.583Z,28.61
2022-08-17T06:47:34.471Z,28.64
2022-08-17T06:50:12.067Z,28.64
2022-08-17T06:53:09.296Z,28.65
2022-08-17T06:55:45.656Z,28.66
2022-08-17T06:58:16.326Z,28.66
2022-08-17T07:00:47.652Z,28.69
2022-08-17T07:03:28.222Z,28.66
2022-08-17T07:06:02.849Z,28.72
2022-08-17T07:08:38.329Z,28.70
2022-08-17T07:11:46.430Z,28.70
2022-08-17T07:14:53.278Z,28.71
2022-08-17T07:17:22.469Z,28.74
2022-08-17T07:20:16.144Z,28.75
2022-08-17T07:22:59.871Z,28.81
2022-08-17T07:25:28.612Z,28.80
2022-08-17T07:27:59.724Z,28.81
2022-08-17T07:30:28.115Z,28.84
2022-08-17T07:32:59.470Z,28.91
2022-08-17T07:35:37.629Z,28.94
2022-08-17T07:38:30.637Z,29.02
2022-08-17T07:40:57.917Z,28.99
2022-08-17T07:43:47.224Z,29.09
2022-08-17T07:46:45.817Z,29.11
2022-08-17T07:49:14.905Z,29.08
2022-08-17T07:51:45.557Z,29.09
2022-08-17T07:54:15.163Z,29.08
2022-08-17T07:56:47.711Z,29.06
2022-08-17T07:59:23.889Z,29.05
2022-08-17T08:01:57.980Z,29.03
2022-08-17T08:05:01.345Z,29.00
2022-08-17T08:07:39.492Z,29.03
2022-08-17T08:10:11.052Z,29.03
2022-08-17T08:12:41.489Z,29.02
2022-08-17T08:15:22.249Z,29.04
2022-08-17T08:17:54.095Z,29.02
2022-08-17T08:20:52.080Z,29.00
2022-08-17T08:23:22.796Z,29.00
2022-08-17T08:26:18.454Z,28.96
2022-08-17T08:29:19.668Z,29.03
2022-08-17T08:32:08.034Z,29.01
2022-08-17T08:34:54.748Z,29.05
2022-08-17T08:37:35.776Z,29.08
2022-08-17T08:40:20.492Z,29.13
2022-08-17T08:43:28.559Z,29.12
2022-08-17T08:46:02.776Z,29.14
2022-08-17T08:48:58.007Z,29.10
2022-08-17T08:51:55.355Z,29.20
2022-08-17T08:54:48.493Z,29.22
2022-08-17T08:57:47.116Z,29.24
2022-08-17T09:00:17.715Z,29.27
2022-08-17T09:03:07.370Z,29.28
2022-08-17T09:05:37.053Z,29.32
2022-08-17T09:08:23.359Z,29.27
2022-08-17T09:11:22.537Z,29.30
2022-08-17T09:14:17.222Z,29.30
2022-08-17T09:17:03.736Z,29.32
2022-08-17T09:19:43.462Z,29.35
2022-08-17T09:22:26.204Z,29.41
2022-08-17T09:24:57.228Z,29.47
2022-08-17T09:27:32.072Z,29.51
2022-08-17T09:30:04.398Z,29.60
2022-08-17T09:32:43.953Z,29.57
2022-08-17T09:35:17.568Z,29.66
2022-08-17T09:38:22.607Z,29.68
2022-08-17T09:40:52.215Z,29.67
2022-08-17T09:43:52.247Z,29.76
2022-08-17T09:46:28.494Z,29.87
2022-08-17T09:49:25.467Z,29.82
2022-08-17T09:51:57.404Z,30.01
2022-08-17T09:54:44.838Z,30.02
2022-08-17T09:57:37.165Z,30.11
2022-08-17T10:00:13.235Z,30.13
2022-08-17T10:02:57.939Z,30.08
2022-08-17T10:05:45.424Z,30.27
2022-08-17T10:08:46.927Z,30.30
2022-08-17T10:12:01.022Z,30.01
2022-08-17T10:14:43.819Z,29.77
2022-08-17T10:17:25.326Z,29.83
2022-08-17T10:20:10.562Z,29.82
2022-08-17T10:23:06.210Z,29.76
2022-08-17T10:25:56.790Z,29.61
2022-08-17T10:28:30.388Z,29.65
2022-08-17T10:31:30.797Z,29.70
2022-08-17T10:34:05.329Z,29.64
2022-08-17T10:37:06.153Z,29.61
2022-08-17T10:40:09.180Z,29.64
2022-08-17T10:43:00.695Z,29.78
2022-08-17T10:46:30.863Z,29.99
2022-08-17T10:49:24.066Z,29.83
2022-08-17T10:51:54.490Z,29.96
2022-08-17T10:55:02.225Z,30.04
2022-08-17T10:57:49.505Z,31.27
2022-08-17T11:00:18.945Z,31.84
2022-08-17T11:02:54.076Z,31.60
2022-08-17T11:05:43.759Z,31.03
2022-08-17T11:08:33.571Z,30.59
2022-08-17T11:11:37.570Z,30.45
2022-08-17T11:14:08.656Z,31.18
2022-08-17T11:17:20.927Z,30.49
2022-08-17T11:20:13.002Z,30.15
2022-08-17T11:22:50.110Z,30.01
2022-08-17T11:25:20.223Z,30.00
2022-08-17T11:27:53.828Z,29.92
2022-08-17T11:30:51.107Z,29.92
2022-08-17T11:33:29.859Z,30.49
2022-08-17T11:36:18.306Z,33.41
2022-08-17T11:39:09.734Z,35.08
2022-08-17T11:41:48.794Z,36.45
2022-08-17T11:44:37.601Z,37.24
2022-08-17T11:48:23.779Z,38.13
2022-08-17T11:51:31.150Z,34.11
2022-08-17T11:54:34.613Z,32.24
2022-08-17T11:57:27.332Z,31.33
2022-08-17T12:00:00.456Z,30.88
2022-08-17T12:02:29.790Z,30.65
2022-08-17T12:05:10.340Z,30.55
2022-08-17T12:08:12.504Z,30.54
2022-08-17T12:10:58.111Z,30.52
2022-08-17T12:13:30.491Z,30.73
2022-08-17T12:16:05.697Z,30.85
2022-08-17T12:18:37.385Z,31.65
2022-08-17T12:21:06.563Z,32.08
2022-08-17T12:23:47.302Z,31.91
2022-08-17T12:26:30.217Z,31.34
2022-08-17T12:29:02.697Z,31.05
2022-08-17T12:31:44.269Z,30.90
2022-08-17T12:34:41.957Z,30.87
2022-08-17T12:37:29.674Z,30.71
2022-08-17T12:40:01.051Z,30.45
2022-08-17T12:42:37.475Z,30.38
2022-08-17T12:45:07.513Z,30.35
2022-08-17T12:47:37.224Z,30.30
2022-08-17T12:50:08.179Z,30.26
2022-08-17T12:52:58.518Z,30.38
2022-08-17T12:55:33.762Z,30.48
2022-08-17T12:58:02.201Z,30.73
2022-08-17T13:00:37.988Z,30.85
2022-08-17T13:03:09.486Z,30.96
2022-08-17T13:05:54.238Z,30.97
2022-08-17T13:08:36.094Z,30.73
2022-08-17T13:11:09.936Z,30.62
2022-08-17T13:13:40.589Z,30.61
2022-08-17T13:16:14.354Z,30.91
2022-08-17T13:18:46.346Z,30.71
2022-08-17T13:21:18.955Z,30.53
2022-08-17T13:24:05.688Z,30.45
2022-08-17T13:27:07.887Z,30.74
2022-08-17T13:29:39.297Z,31.15
2022-08-17T13:32:13.013Z,31.31
2022-08-17T13:35:12.415Z,31.45
2022-08-17T13:37:41.058Z,31.66
2022-08-17T13:40:09.370Z,31.27
2022-08-17T13:42:52.381Z,31.48
2022-08-17T13:45:36.022Z,31.72
2022-08-17T13:48:11.856Z,31.75
2022-08-17T13:50:59.590Z,31.80
2022-08-17T13:53:47.581Z,31.89
2022-08-17T13:56:39.044Z,31.45
2022-08-17T13:59:16.007Z,31.24
2022-08-17T14:01:51.074Z,30.96
2022-08-17T14:04:22.805Z,30.86
2022-08-17T14:07:12.975Z,30.77
2022-08-17T14:09:50.330Z,30.66
2022-08-17T14:12:21.701Z,30.61
2022-08-17T14:14:49.550Z,30.59
2022-08-17T14:17:16.403Z,30.58
2022-08-17T14:19:43.131Z,30.55
2022-08-17T14:22:18.354Z,30.48
2022-08-17T14:24:45.852Z,30.49
2022-08-17T14:27:12.482Z,30.77
2022-08-17T14:29:41.080Z,31.23
2022-08-17T14:32:20.933Z,31.51
2022-08-17T14:34:49.607Z,31.71
2022-08-17T14:37:20.954Z,31.74
2022-08-17T14:39:47.717Z,31.81
2022-08-17T14:42:15.509Z,31.85
2022-08-17T14:44:42.111Z,31.84
2022-08-17T14:47:14.936Z,31.77
2022-08-17T14:49:42.205Z,31.70
2022-08-17T14:52:12.290Z,31.64
2022-08-17T14:54:43.752Z,31.62
2022-08-17T14:57:25.720Z,31.49
2022-08-17T14:59:59.713Z,31.35
2022-08-17T15:02:31.060Z,31.28
2022-08-17T15:05:06.040Z,31.37
2022-08-17T15:07:32.730Z,31.33
2022-08-17T15:10:01.506Z,31.18
2022-08-17T15:12:33.225Z,31.11
2022-08-17T15:15:04.700Z,31.13
2022-08-17T15:17:45.080Z,31.20
2022-08-17T15:20:33.301Z,31.29
2022-08-17T15:22:59.967Z,31.43
2022-08-17T15:25:29.227Z,31.49
2022-08-17T15:27:56.104Z,31.52
2022-08-17T15:30:23.681Z,31.56
2022-08-17T15:32:55.115Z,31.58
2022-08-17T15:35:27.858Z,31.67
2022-08-17T15:37:57.195Z,31.69
2022-08-17T15:40:25.167Z,31.66
2022-08-17T15:42:52.021Z,31.68
2022-08-17T15:45:24.632Z,31.66
2022-08-17T15:47:52.547Z,31.60
2022-08-17T15:50:19.674Z,31.43
2022-08-17T15:52:47.508Z,31.45
2022-08-17T15:55:15.359Z,31.39
2022-08-17T15:57:42.210Z,31.30
2022-08-17T16:00:09.784Z,31.28
2022-08-17T16:03:32.004Z,31.14
2022-08-17T16:05:25.173Z,31.08
2022-08-17T16:07:52.614Z,31.03
2022-08-17T16:10:19.727Z,30.95
2022-08-17T16:12:48.085Z,30.93
2022-08-17T16:15:16.223Z,30.86
2022-08-17T16:17:42.945Z,30.90
2022-08-17T16:20:20.097Z,30.86
2022-08-17T16:22:48.409Z,30.75
2022-08-17T16:25:53.026Z,30.64
2022-08-17T16:28:12.686Z,30.67
2022-08-17T16:30:39.590Z,30.68
2022-08-17T16:33:06.214Z,30.70
2022-08-17T16:35:33.805Z,30.69
2022-08-17T16:38:00.504Z,30.62
2022-08-17T16:40:29.492Z,30.54
2022-08-17T16:42:57.999Z,30.57
2022-08-17T16:45:36.891Z,30.48
2022-08-17T16:48:04.477Z,30.48
2022-08-17T16:50:32.186Z,30.45
2022-08-17T16:53:10.945Z,30.50
2022-08-17T16:55:38.577Z,30.48
2022-08-17T16:58:06.693Z,30.47
2022-08-17T17:00:33.756Z,30.46
2022-08-17T17:03:18.922Z,30.43
2022-08-17T17:06:06.462Z,30.35
2022-08-17T17:09:11.320Z,30.26
2022-08-17T17:11:48.084Z,30.20
2022-08-17T17:14:20.478Z,30.20
2022-08-17T17:17:22.682Z,30.20
2022-08-17T17:20:00.658Z,30.19
2022-08-17T17:22:36.136Z,30.16
2022-08-17T17:25:02.744Z,30.16
2022-08-17T17:27:42.531Z,30.05
2022-08-17T17:30:09.094Z,30.04
2022-08-17T17:33:19.182Z,30.00
2022-08-17T17:35:56.904Z,30.03
2022-08-17T17:38:40.744Z,30.05
2022-08-17T17:41:25.969Z,30.09
2022-08-17T17:44:02.925Z,30.01
2022-08-17T17:46:38.254Z,30.02
2022-08-17T17:49:06.114Z,29.98
2022-08-17T17:52:08.730Z,29.95
2022-08-17T17:55:17.653Z,29.93
2022-08-17T17:58:21.273Z,29.96
2022-08-17T18:01:06.406Z,29.98
2022-08-17T18:04:08.289Z,29.92
2022-08-17T18:07:17.905Z,29.90
2022-08-17T18:10:29.836Z,29.87
2022-08-17T18:13:21.411Z,29.89
2022-08-17T18:15:54.004Z,29.90
2022-08-17T18:18:37.699Z,29.85
2022-08-17T18:21:15.814Z,29.84
2022-08-17T18:24:00.304Z,29.87
2022-08-17T18:26:32.947Z,29.82
2022-08-17T18:29:01.193Z,29.89
2022-08-17T18:31:27.949Z,29.87
2022-08-17T18:34:45.424Z,29.88
2022-08-17T18:37:09.513Z,29.90
2022-08-17T18:39:39.858Z,29.89
2022-08-17T18:42:25.813Z,29.88
2022-08-17T18:44:55.320Z,29.88
2022-08-17T18:47:28.873Z,29.90
2022-08-17T18:49:57.981Z,29.90
2022-08-17T18:52:28.495Z,29.90
2022-08-17T18:55:04.302Z,29.89
2022-08-17T18:57:59.730Z,29.88
2022-08-17T19:00:39.649Z,29.86
2022-08-17T19:03:15.294Z,29.85
2022-08-17T19:05:43.382Z,29.81
2022-08-17T19:08:33.183Z,29.85
2022-08-17T19:11:07.268Z,29.84
2022-08-17T19:13:42.916Z,29.87
2022-08-17T19:16:15.681Z,29.86
2022-08-17T19:18:52.534Z,29.84
2022-08-17T19:21:30.432Z,29.82
2022-08-17T19:24:20.031Z,29.83
2022-08-17T19:26:55.972Z,29.83
2022-08-17T19:29:50.052Z,29.82
2022-08-17T19:32:20.541Z,29.77
2022-08-17T19:34:48.077Z,29.75
2022-08-17T19:37:33.362Z,29.78
2022-08-17T19:40:29.299Z,29.71
2022-08-17T19:43:21.539Z,29.71
2022-08-17T19:46:06.024Z,29.72
2022-08-17T19:48:57.450Z,29.70
2022-08-17T19:51:57.478Z,29.69
2022-08-17T19:54:31.394Z,29.64
2022-08-17T19:57:18.389Z,29.65
2022-08-17T19:59:58.039Z,29.67
2022-08-17T20:02:37.766Z,29.65
2022-08-17T20:05:11.641Z,29.62
2022-08-17T20:07:44.316Z,29.61
2022-08-17T20:10:23.589Z,29.63
2022-08-17T20:12:53.185Z,29.62
2022-08-17T20:15:30.696Z,29.61
2022-08-17T20:18:05.137Z,29.61
2022-08-17T20:20:56.376Z,29.60
2022-08-17T20:23:22.912Z,29.59
2022-08-17T20:26:30.341Z,29.60
2022-08-17T20:29:37.705Z,29.57
2022-08-17T20:32:20.920Z,29.58
2022-08-17T20:34:47.919Z,29.57
2022-08-17T20:37:14.549Z,29.55
2022-08-17T20:39:52.686Z,29.51
2022-08-17T20:42:22.093Z,29.55
2022-08-17T20:44:54.483Z,29.53
2022-08-17T20:47:33.997Z,29.52
2022-08-17T20:50:33.031Z,29.52
2022-08-17T20:53:03.277Z,29.48
2022-08-17T20:55:36.378Z,29.51
2022-08-17T20:58:24.558Z,29.49
2022-08-17T21:00:57.641Z,29.48
2022-08-17T21:03:24.407Z,29.46
2022-08-17T21:06:00.382Z,29.47
2022-08-17T21:08:54.569Z,29.47
2022-08-17T21:11:57.185Z,29.43
2022-08-17T21:14:29.694Z,29.42
2022-08-17T21:17:29.856Z,29.41
2022-08-17T21:20:12.069Z,29.39
2022-08-17T21:23:15.834Z,29.39
2022-08-17T21:25:49.118Z,29.36
2022-08-17T21:28:33.797Z,29.34
2022-08-17T21:31:08.538Z,29.30
2022-08-17T21:33:39.942Z,29.30
2022-08-17T21:36:12.626Z,29.32
2022-08-17T21:38:48.817Z,29.29
2022-08-17T21:41:29.727Z,29.25
2022-08-17T21:44:11.770Z,29.27
2022-08-17T21:46:42.932Z,29.26
2022-08-17T21:49:17.808Z,29.25
2022-08-17T21:51:51.762Z,29.24
2022-08-17T21:54:34.657Z,29.23
2022-08-17T21:57:04.446Z,29.20
2022-08-17T21:59:35.714Z,29.21
2022-08-17T22:02:06.122Z,29.22
2022-08-17T22:04:34.733Z,29.25
2022-08-17T22:07:04.945Z,29.22
2022-08-17T22:09:46.014Z,29.18
2022-08-17T22:12:20.785Z,29.16
2022-08-17T22:15:00.274Z,29.16
2022-08-17T22:17:30.002Z,29.13
2022-08-17T22:20:04.696Z,29.17
2022-08-17T22:22:57.948Z,29.17
2022-08-17T22:25:26.731Z,29.11
2022-08-17T22:27:57.075Z,29.12
2022-08-17T22:30:39.781Z,29.14
2022-08-17T22:33:28.011Z,29.11
2022-08-17T22:36:22.116Z,29.07
2022-08-17T22:38:50.161Z,29.08
2022-08-17T22:41:35.024Z,29.14
2022-08-17T22:44:31.962Z,29.10
2022-08-17T22:47:00.497Z,29.09
2022-08-17T22:49:32.567Z,29.07
2022-08-17T22:52:22.247Z,29.08
2022-08-17T22:55:17.865Z,29.03
2022-08-17T22:58:08.311Z,29.04
2022-08-17T23:00:39.304Z,29.02
2022-08-17T23:03:16.214Z,29.02
2022-08-17T23:05:47.319Z,29.05
2022-08-17T23:08:21.044Z,29.02
2022-08-17T23:10:48.603Z,29.00
2022-08-17T23:13:15.367Z,29.00
2022-08-17T23:15:43.030Z,28.98
2022-08-17T23:18:09.681Z,28.98
2022-08-17T23:20:41.763Z,29.00
2022-08-17T23:23:10.196Z,29.00
2022-08-17T23:25:37.441Z,28.98
2022-08-17T23:28:06.557Z,28.95
2022-08-17T23:30:37.003Z,28.96
2022-08-17T23:33:07.477Z,28.94
2022-08-17T23:35:39.721Z,28.94
2022-08-17T23:38:09.163Z,28.92
2022-08-17T23:40:35.844Z,28.90
2022-08-17T23:43:11.455Z,28.90
2022-08-17T23:45:55.216Z,28.91
2022-08-17T23:48:35.244Z,28.92
2022-08-17T23:51:05.834Z,28.72
2022-08-17T23:53:34.865Z,28.69
2022-08-17T23:56:09.696Z,28.74
2022-08-17T23:58:44.915Z,28.68
